Alexander, North Carolina
Current Conditions -  °F | °C
As of 10:54 PM on Tuesday 21 Oct 2014 (Local Time) from KAVL Reporting Station
Clear Clear  
Wind Chill: 50°   Ceiling: Unl
Heat Index: 50°   Visibility: 10mi
Dew Point: 36°   Wind: 21mph
Humidity: 59%   Direction: 350°N
Pressure: 30.04"   Gusts: 32mph
Location:  35.69°N, 82.66°W
Report Text: KAVL 220254Z AUTO 35018G28KT 10SM CLR 10/02 A3004 RMK AO2 PK WND 34028/0208 SLP160 T01000022 53014
Loading
Personal Weather Stations






























Interactive Weather Map
Tropical Storm Tracking
New forecast layout! Learn more

10-Day Weather Forecast

Advertisements
Track Severe Weather on mobile